sensor_id;sensor_type;location;lat;lon;timestamp;pressure;altitude;pressure_sealevel;temperature;humidity
77240;BME280;66258;53.170;-2.240;2023-03-21T00:01:51;99617.78;;;18.25;nan
77240;BME280;66258;53.170;-2.240;2023-03-21T00:04:19;99622.06;;;18.32;nan
77240;BME280;66258;53.170;-2.240;2023-03-21T00:06:47;99603.97;;;18.31;nan
77240;BME280;66258;53.170;-2.240;2023-03-21T00:09:14;99609.66;;;18.18;nan
77240;BME280;66258;53.170;-2.240;2023-03-21T00:11:41;99616.28;;;18.10;nan
77240;BME280;66258;53.170;-2.240;2023-03-21T00:14:10;99604.06;;;18.25;nan
77240;BME280;66258;53.170;-2.240;2023-03-21T00:16:38;99603.00;;;18.26;nan
77240;BME280;66258;53.170;-2.240;2023-03-21T00:19:08;99599.44;;;18.25;nan
77240;BME280;66258;53.170;-2.240;2023-03-21T00:21:36;99600.28;;;18.26;nan
77240;BME280;66258;53.170;-2.240;2023-03-21T00:24:21;99599.53;;;18.18;nan
77240;BME280;66258;53.170;-2.240;2023-03-21T00:26:49;99602.25;;;18.18;nan
77240;BME280;66258;53.170;-2.240;2023-03-21T00:29:17;99605.38;;;18.22;nan
77240;BME280;66258;53.170;-2.240;2023-03-21T00:31:45;99604.69;;;18.27;nan
77240;BME280;66258;53.170;-2.240;2023-03-21T00:34:14;99588.53;;;18.07;nan
77240;BME280;66258;53.170;-2.240;2023-03-21T00:36:44;99596.16;;;18.05;nan
77240;BME280;66258;53.170;-2.240;2023-03-21T00:39:12;99594.59;;;18.09;nan
77240;BME280;66258;53.170;-2.240;2023-03-21T00:41:39;99579.19;;;17.96;nan
77240;BME280;66258;53.170;-2.240;2023-03-21T00:44:10;99583.28;;;17.75;nan
77240;BME280;66258;53.170;-2.240;2023-03-21T00:46:38;99585.31;;;18.10;nan
77240;BME280;66258;53.170;-2.240;2023-03-21T00:49:18;99572.00;;;18.13;nan
77240;BME280;66258;53.170;-2.240;2023-03-21T00:51:46;99567.16;;;17.85;nan
77240;BME280;66258;53.170;-2.240;2023-03-21T00:54:14;99569.72;;;18.10;nan
77240;BME280;66258;53.170;-2.240;2023-03-21T00:56:41;99547.44;;;17.65;nan
77240;BME280;66258;53.170;-2.240;2023-03-21T00:59:08;99543.09;;;17.88;nan
77240;BME280;66258;53.170;-2.240;2023-03-21T01:01:42;99552.13;;;18.18;nan
77240;BME280;66258;53.170;-2.240;2023-03-21T01:04:12;99537.16;;;17.91;nan
77240;BME280;66258;53.170;-2.240;2023-03-21T01:06:43;99532.41;;;17.68;nan
77240;BME280;66258;53.170;-2.240;2023-03-21T01:09:13;99526.25;;;17.72;nan
77240;BME280;66258;53.170;-2.240;2023-03-21T01:11:41;99522.81;;;17.77;nan
77240;BME280;66258;53.170;-2.240;2023-03-21T01:14:11;99522.81;;;18.07;nan
77240;BME280;66258;53.170;-2.240;2023-03-21T01:16:55;99501.09;;;17.94;nan
77240;BME280;66258;53.170;-2.240;2023-03-21T01:19:24;99509.06;;;17.83;nan
77240;BME280;66258;53.170;-2.240;2023-03-21T01:22:13;99506.56;;;17.94;nan
77240;BME280;66258;53.170;-2.240;2023-03-21T01:24:41;99507.06;;;18.02;nan
77240;BME280;66258;53.170;-2.240;2023-03-21T01:27:19;99500.47;;;17.92;nan
77240;BME280;66258;53.170;-2.240;2023-03-21T01:29:47;99499.56;;;17.98;nan
77240;BME280;66258;53.170;-2.240;2023-03-21T01:32:15;99496.34;;;18.01;nan
77240;BME280;66258;53.170;-2.240;2023-03-21T01:34:45;99505.59;;;17.88;nan
77240;BME280;66258;53.170;-2.240;2023-03-21T01:37:14;99493.63;;;17.71;nan
77240;BME280;66258;53.170;-2.240;2023-03-21T01:39:41;99484.53;;;17.89;nan
77240;BME280;66258;53.170;-2.240;2023-03-21T01:42:12;99482.63;;;17.89;nan
77240;BME280;66258;53.170;-2.240;2023-03-21T01:44:52;99486.56;;;17.63;nan
77240;BME280;66258;53.170;-2.240;2023-03-21T01:47:23;99491.56;;;17.96;nan
77240;BME280;66258;53.170;-2.240;2023-03-21T01:49:53;99488.00;;;17.96;nan
77240;BME280;66258;53.170;-2.240;2023-03-21T01:52:32;99478.22;;;17.88;nan
77240;BME280;66258;53.170;-2.240;2023-03-21T01:55:06;99478.94;;;17.83;nan
77240;BME280;66258;53.170;-2.240;2023-03-21T01:57:45;99484.50;;;17.77;nan
77240;BME280;66258;53.170;-2.240;2023-03-21T02:00:30;99483.44;;;17.90;nan
77240;BME280;66258;53.170;-2.240;2023-03-21T02:03:00;99490.38;;;17.92;nan
77240;BME280;66258;53.170;-2.240;2023-03-21T02:05:50;99482.03;;;17.87;nan
77240;BME280;66258;53.170;-2.240;2023-03-21T02:08:21;99481.31;;;17.80;nan
77240;BME280;66258;53.170;-2.240;2023-03-21T02:11:02;99473.53;;;17.65;nan
77240;BME280;66258;53.170;-2.240;2023-03-21T02:13:30;99471.19;;;17.80;nan
77240;BME280;66258;53.170;-2.240;2023-03-21T02:16:01;99476.66;;;17.80;nan
77240;BME280;66258;53.170;-2.240;2023-03-21T02:18:37;99470.63;;;18.02;nan
77240;BME280;66258;53.170;-2.240;2023-03-21T02:21:28;99463.28;;;17.72;nan
77240;BME280;66258;53.170;-2.240;2023-03-21T02:24:31;99470.47;;;17.55;nan
77240;BME280;66258;53.170;-2.240;2023-03-21T02:27:13;99461.75;;;17.76;nan
77240;BME280;66258;53.170;-2.240;2023-03-21T02:30:15;99458.41;;;17.74;nan
77240;BME280;66258;53.170;-2.240;2023-03-21T02:36:16;99446.94;;;17.96;nan
77240;BME280;66258;53.170;-2.240;2023-03-21T02:38:51;99458.94;;;17.95;nan
77240;BME280;66258;53.170;-2.240;2023-03-21T02:41:25;99451.56;;;17.95;nan
77240;BME280;66258;53.170;-2.240;2023-03-21T02:44:09;99445.03;;;17.96;nan
77240;BME280;66258;53.170;-2.240;2023-03-21T02:46:45;99439.53;;;17.96;nan
77240;BME280;66258;53.170;-2.240;2023-03-21T02:49:34;99437.28;;;17.93;nan
77240;BME280;66258;53.170;-2.240;2023-03-21T02:52:07;99435.28;;;18.12;nan
77240;BME280;66258;53.170;-2.240;2023-03-21T02:54:48;99431.94;;;17.87;nan
77240;BME280;66258;53.170;-2.240;2023-03-21T02:57:17;99430.59;;;17.89;nan
77240;BME280;66258;53.170;-2.240;2023-03-21T02:59:48;99436.66;;;17.79;nan
77240;BME280;66258;53.170;-2.240;2023-03-21T03:02:26;99427.78;;;18.07;nan
77240;BME280;66258;53.170;-2.240;2023-03-21T03:04:55;99416.69;;;18.14;nan
77240;BME280;66258;53.170;-2.240;2023-03-21T03:07:32;99415.75;;;18.20;nan
77240;BME280;66258;53.170;-2.240;2023-03-21T03:13:15;99412.91;;;18.03;nan
77240;BME280;66258;53.170;-2.240;2023-03-21T03:15:50;99411.69;;;17.99;nan
77240;BME280;66258;53.170;-2.240;2023-03-21T03:18:28;99401.34;;;18.13;nan
77240;BME280;66258;53.170;-2.240;2023-03-21T03:21:02;99400.03;;;18.04;nan
77240;BME280;66258;53.170;-2.240;2023-03-21T03:23:41;99403.72;;;18.21;nan
77240;BME280;66258;53.170;-2.240;2023-03-21T03:26:14;99410.16;;;18.15;nan
77240;BME280;66258;53.170;-2.240;2023-03-21T03:28:50;99408.50;;;18.26;nan
77240;BME280;66258;53.170;-2.240;2023-03-21T03:31:23;99401.94;;;18.15;nan
77240;BME280;66258;53.170;-2.240;2023-03-21T03:33:56;99404.78;;;18.08;nan
77240;BME280;66258;53.170;-2.240;2023-03-21T03:36:30;99403.63;;;18.28;nan
77240;BME280;66258;53.170;-2.240;2023-03-21T03:39:02;99400.25;;;18.37;nan
77240;BME280;66258;53.170;-2.240;2023-03-21T03:41:34;99395.38;;;18.16;nan
77240;BME280;66258;53.170;-2.240;2023-03-21T03:44:26;99392.28;;;18.12;nan
77240;BME280;66258;53.170;-2.240;2023-03-21T03:47:06;99388.00;;;18.28;nan
77240;BME280;66258;53.170;-2.240;2023-03-21T03:50:01;99379.91;;;18.22;nan
77240;BME280;66258;53.170;-2.240;2023-03-21T03:52:35;99377.41;;;17.97;nan
77240;BME280;66258;53.170;-2.240;2023-03-21T03:55:20;99373.34;;;18.11;nan
77240;BME280;66258;53.170;-2.240;2023-03-21T03:57:49;99371.91;;;18.32;nan
77240;BME280;66258;53.170;-2.240;2023-03-21T04:00:20;99356.09;;;17.99;nan
77240;BME280;66258;53.170;-2.240;2023-03-21T04:02:48;99366.09;;;18.16;nan
77240;BME280;66258;53.170;-2.240;2023-03-21T04:05:17;99357.50;;;18.13;nan
77240;BME280;66258;53.170;-2.240;2023-03-21T04:07:47;99360.00;;;18.38;nan
77240;BME280;66258;53.170;-2.240;2023-03-21T04:10:15;99358.97;;;18.04;nan
77240;BME280;66258;53.170;-2.240;2023-03-21T04:12:42;99355.84;;;18.12;nan
77240;BME280;66258;53.170;-2.240;2023-03-21T04:15:11;99353.69;;;18.37;nan
77240;BME280;66258;53.170;-2.240;2023-03-21T04:17:41;99339.66;;;18.22;nan
77240;BME280;66258;53.170;-2.240;2023-03-21T04:20:10;99337.38;;;18.42;nan
77240;BME280;66258;53.170;-2.240;2023-03-21T04:22:49;99342.16;;;18.24;nan
77240;BME280;66258;53.170;-2.240;2023-03-21T04:25:16;99334.28;;;18.39;nan
77240;BME280;66258;53.170;-2.240;2023-03-21T04:27:58;99334.97;;;18.46;nan
77240;BME280;66258;53.170;-2.240;2023-03-21T04:30:25;99332.63;;;18.26;nan
77240;BME280;66258;53.170;-2.240;2023-03-21T04:32:55;99328.56;;;18.17;nan
77240;BME280;66258;53.170;-2.240;2023-03-21T04:35:23;99340.47;;;18.34;nan
77240;BME280;66258;53.170;-2.240;2023-03-21T04:37:51;99331.31;;;18.29;nan
77240;BME280;66258;53.170;-2.240;2023-03-21T04:40:19;99327.00;;;18.33;nan
77240;BME280;66258;53.170;-2.240;2023-03-21T04:42:47;99328.59;;;18.29;nan
77240;BME280;66258;53.170;-2.240;2023-03-21T04:45:16;99329.34;;;18.52;nan
77240;BME280;66258;53.170;-2.240;2023-03-21T04:47:44;99322.69;;;18.60;nan
77240;BME280;66258;53.170;-2.240;2023-03-21T04:50:13;99320.88;;;18.54;nan
77240;BME280;66258;53.170;-2.240;2023-03-21T04:52:40;99306.81;;;18.50;nan
77240;BME280;66258;53.170;-2.240;2023-03-21T04:55:09;99310.16;;;18.64;nan
77240;BME280;66258;53.170;-2.240;2023-03-21T04:57:39;99298.25;;;18.59;nan
77240;BME280;66258;53.170;-2.240;2023-03-21T05:00:07;99292.06;;;18.63;nan
77240;BME280;66258;53.170;-2.240;2023-03-21T05:02:35;99289.47;;;18.33;nan
77240;BME280;66258;53.170;-2.240;2023-03-21T05:05:04;99290.31;;;18.45;nan
77240;BME280;66258;53.170;-2.240;2023-03-21T05:07:35;99295.81;;;18.22;nan
77240;BME280;66258;53.170;-2.240;2023-03-21T05:10:03;99294.28;;;18.26;nan
77240;BME280;66258;53.170;-2.240;2023-03-21T05:12:32;99288.28;;;18.29;nan
77240;BME280;66258;53.170;-2.240;2023-03-21T05:15:00;99288.88;;;18.43;nan
77240;BME280;66258;53.170;-2.240;2023-03-21T05:17:28;99281.41;;;18.15;nan
77240;BME280;66258;53.170;-2.240;2023-03-21T05:19:56;99285.41;;;18.47;nan
77240;BME280;66258;53.170;-2.240;2023-03-21T05:22:25;99285.41;;;18.47;nan
77240;BME280;66258;53.170;-2.240;2023-03-21T05:24:54;99283.28;;;18.49;nan
77240;BME280;66258;53.170;-2.240;2023-03-21T05:27:22;99280.78;;;18.48;nan
77240;BME280;66258;53.170;-2.240;2023-03-21T05:29:50;99281.69;;;18.65;nan
77240;BME280;66258;53.170;-2.240;2023-03-21T05:32:21;99274.81;;;18.39;nan
77240;BME280;66258;53.170;-2.240;2023-03-21T05:34:48;99287.22;;;18.42;nan
77240;BME280;66258;53.170;-2.240;2023-03-21T05:37:16;99267.13;;;18.25;nan
77240;BME280;66258;53.170;-2.240;2023-03-21T05:39:43;99265.00;;;18.55;nan
77240;BME280;66258;53.170;-2.240;2023-03-21T05:42:13;99268.28;;;18.40;nan
77240;BME280;66258;53.170;-2.240;2023-03-21T05:44:41;99269.56;;;18.49;nan
77240;BME280;66258;53.170;-2.240;2023-03-21T05:47:09;99268.13;;;18.47;nan
77240;BME280;66258;53.170;-2.240;2023-03-21T05:49:36;99260.22;;;18.22;nan
77240;BME280;66258;53.170;-2.240;2023-03-21T05:52:04;99248.94;;;18.07;nan
77240;BME280;66258;53.170;-2.240;2023-03-21T05:54:31;99237.75;;;17.97;nan
77240;BME280;66258;53.170;-2.240;2023-03-21T05:56:59;99240.44;;;18.20;nan
77240;BME280;66258;53.170;-2.240;2023-03-21T05:59:30;99240.69;;;18.18;nan
77240;BME280;66258;53.170;-2.240;2023-03-21T06:01:58;99247.31;;;18.34;nan
77240;BME280;66258;53.170;-2.240;2023-03-21T06:04:26;99236.47;;;18.39;nan
77240;BME280;66258;53.170;-2.240;2023-03-21T06:06:55;99240.09;;;18.16;nan
77240;BME280;66258;53.170;-2.240;2023-03-21T06:09:24;99239.66;;;18.08;nan
77240;BME280;66258;53.170;-2.240;2023-03-21T06:11:53;99242.91;;;18.33;nan
77240;BME280;66258;53.170;-2.240;2023-03-21T06:14:22;99243.59;;;18.40;nan
77240;BME280;66258;53.170;-2.240;2023-03-21T06:16:52;99238.41;;;18.55;nan
77240;BME280;66258;53.170;-2.240;2023-03-21T06:19:20;99238.59;;;18.49;nan
77240;BME280;66258;53.170;-2.240;2023-03-21T06:21:47;99243.41;;;18.59;nan
77240;BME280;66258;53.170;-2.240;2023-03-21T06:24:14;99244.50;;;18.58;nan
77240;BME280;66258;53.170;-2.240;2023-03-21T06:26:41;99249.97;;;18.58;nan
77240;BME280;66258;53.170;-2.240;2023-03-21T06:29:09;99240.72;;;18.47;nan
77240;BME280;66258;53.170;-2.240;2023-03-21T06:31:36;99239.41;;;18.49;nan
77240;BME280;66258;53.170;-2.240;2023-03-21T06:34:06;99240.22;;;18.50;nan
77240;BME280;66258;53.170;-2.240;2023-03-21T06:36:34;99241.88;;;18.51;nan
77240;BME280;66258;53.170;-2.240;2023-03-21T06:39:01;99247.72;;;18.66;nan
77240;BME280;66258;53.170;-2.240;2023-03-21T06:41:29;99238.25;;;18.45;nan
77240;BME280;66258;53.170;-2.240;2023-03-21T06:43:57;99239.75;;;18.65;nan
77240;BME280;66258;53.170;-2.240;2023-03-21T06:46:25;99244.16;;;18.66;nan
77240;BME280;66258;53.170;-2.240;2023-03-21T06:48:53;99252.66;;;18.81;nan
77240;BME280;66258;53.170;-2.240;2023-03-21T06:51:21;99240.91;;;18.57;nan
77240;BME280;66258;53.170;-2.240;2023-03-21T06:53:48;99245.47;;;18.51;nan
77240;BME280;66258;53.170;-2.240;2023-03-21T06:56:15;99235.44;;;18.69;nan
77240;BME280;66258;53.170;-2.240;2023-03-21T06:58:43;99236.41;;;18.63;nan
77240;BME280;66258;53.170;-2.240;2023-03-21T07:01:10;99232.56;;;18.92;nan
77240;BME280;66258;53.170;-2.240;2023-03-21T07:03:37;99239.09;;;18.74;nan
77240;BME280;66258;53.170;-2.240;2023-03-21T07:06:08;99249.91;;;18.81;nan
77240;BME280;66258;53.170;-2.240;2023-03-21T07:08:40;99238.50;;;18.72;nan
77240;BME280;66258;53.170;-2.240;2023-03-21T07:11:08;99244.22;;;18.99;nan
77240;BME280;66258;53.170;-2.240;2023-03-21T07:13:36;99238.13;;;18.97;nan
77240;BME280;66258;53.170;-2.240;2023-03-21T07:16:04;99236.41;;;19.25;nan
77240;BME280;66258;53.170;-2.240;2023-03-21T07:18:33;99233.44;;;19.09;nan
77240;BME280;66258;53.170;-2.240;2023-03-21T07:21:01;99232.03;;;19.57;nan
77240;BME280;66258;53.170;-2.240;2023-03-21T07:23:28;99231.44;;;19.72;nan
77240;BME280;66258;53.170;-2.240;2023-03-21T07:25:58;99230.59;;;19.54;nan
77240;BME280;66258;53.170;-2.240;2023-03-21T07:28:24;99225.91;;;19.88;nan
77240;BME280;66258;53.170;-2.240;2023-03-21T07:30:56;99227.63;;;19.73;nan
77240;BME280;66258;53.170;-2.240;2023-03-21T07:33:24;99239.59;;;19.67;nan
77240;BME280;66258;53.170;-2.240;2023-03-21T07:35:52;99235.00;;;19.55;nan
77240;BME280;66258;53.170;-2.240;2023-03-21T07:38:21;99238.81;;;19.38;nan
77240;BME280;66258;53.170;-2.240;2023-03-21T07:40:48;99233.50;;;19.14;nan
77240;BME280;66258;53.170;-2.240;2023-03-21T07:43:18;99230.34;;;19.06;nan
77240;BME280;66258;53.170;-2.240;2023-03-21T07:45:46;99243.38;;;18.99;nan
77240;BME280;66258;53.170;-2.240;2023-03-21T07:48:17;99231.88;;;18.57;nan
77240;BME280;66258;53.170;-2.240;2023-03-21T07:50:48;99224.63;;;19.07;nan
77240;BME280;66258;53.170;-2.240;2023-03-21T07:53:17;99224.53;;;19.02;nan
77240;BME280;66258;53.170;-2.240;2023-03-21T07:55:44;99229.28;;;19.07;nan
77240;BME280;66258;53.170;-2.240;2023-03-21T07:58:14;99229.50;;;19.05;nan
77240;BME280;66258;53.170;-2.240;2023-03-21T08:00:44;99221.38;;;19.10;nan
77240;BME280;66258;53.170;-2.240;2023-03-21T08:03:10;99220.78;;;19.08;nan
77240;BME280;66258;53.170;-2.240;2023-03-21T08:05:37;99210.09;;;18.78;nan
77240;BME280;66258;53.170;-2.240;2023-03-21T08:08:05;99218.97;;;19.31;nan
77240;BME280;66258;53.170;-2.240;2023-03-21T08:10:33;99214.22;;;19.43;nan
77240;BME280;66258;53.170;-2.240;2023-03-21T08:13:01;99208.31;;;19.34;nan
77240;BME280;66258;53.170;-2.240;2023-03-21T08:15:29;99219.28;;;19.68;nan
77240;BME280;66258;53.170;-2.240;2023-03-21T08:17:59;99226.66;;;20.44;nan
77240;BME280;66258;53.170;-2.240;2023-03-21T08:20:26;99225.69;;;21.78;nan
77240;BME280;66258;53.170;-2.240;2023-03-21T08:22:53;99223.50;;;21.80;nan
77240;BME280;66258;53.170;-2.240;2023-03-21T08:25:22;99213.63;;;21.15;nan
77240;BME280;66258;53.170;-2.240;2023-03-21T08:27:50;99217.75;;;20.86;nan
77240;BME280;66258;53.170;-2.240;2023-03-21T08:30:19;99213.34;;;20.36;nan
77240;BME280;66258;53.170;-2.240;2023-03-21T08:32:47;99205.09;;;19.93;nan
77240;BME280;66258;53.170;-2.240;2023-03-21T08:35:17;99196.88;;;20.14;nan
77240;BME280;66258;53.170;-2.240;2023-03-21T08:37:45;99186.50;;;20.21;nan
77240;BME280;66258;53.170;-2.240;2023-03-21T08:40:15;99193.47;;;20.29;nan
77240;BME280;66258;53.170;-2.240;2023-03-21T08:42:44;99211.88;;;20.50;nan
77240;BME280;66258;53.170;-2.240;2023-03-21T08:45:13;99208.56;;;20.48;nan
77240;BME280;66258;53.170;-2.240;2023-03-21T08:47:41;99210.84;;;20.56;nan
77240;BME280;66258;53.170;-2.240;2023-03-21T08:50:12;99205.56;;;20.50;nan
77240;BME280;66258;53.170;-2.240;2023-03-21T08:52:43;99203.47;;;20.18;nan
77240;BME280;66258;53.170;-2.240;2023-03-21T08:55:12;99192.88;;;20.27;nan
77240;BME280;66258;53.170;-2.240;2023-03-21T08:57:40;99195.34;;;20.72;nan
77240;BME280;66258;53.170;-2.240;2023-03-21T09:00:09;99198.84;;;21.21;nan
77240;BME280;66258;53.170;-2.240;2023-03-21T09:02:37;99196.31;;;20.61;nan
77240;BME280;66258;53.170;-2.240;2023-03-21T09:05:05;99193.91;;;20.43;nan
77240;BME280;66258;53.170;-2.240;2023-03-21T09:07:32;99194.63;;;20.55;nan
77240;BME280;66258;53.170;-2.240;2023-03-21T09:10:01;99187.97;;;20.78;nan
77240;BME280;66258;53.170;-2.240;2023-03-21T09:12:48;99187.66;;;21.06;nan
77240;BME280;66258;53.170;-2.240;2023-03-21T09:15:15;99175.56;;;20.75;nan
77240;BME280;66258;53.170;-2.240;2023-03-21T09:17:42;99181.72;;;20.55;nan
77240;BME280;66258;53.170;-2.240;2023-03-21T09:20:12;99178.59;;;20.74;nan
77240;BME280;66258;53.170;-2.240;2023-03-21T09:22:39;99190.81;;;21.52;nan
77240;BME280;66258;53.170;-2.240;2023-03-21T09:25:11;99193.75;;;22.45;nan
77240;BME280;66258;53.170;-2.240;2023-03-21T09:27:39;99195.88;;;23.05;nan
77240;BME280;66258;53.170;-2.240;2023-03-21T09:30:09;99197.13;;;22.67;nan
77240;BME280;66258;53.170;-2.240;2023-03-21T09:32:37;99182.59;;;21.57;nan
77240;BME280;66258;53.170;-2.240;2023-03-21T09:35:05;99186.94;;;21.48;nan
77240;BME280;66258;53.170;-2.240;2023-03-21T09:37:32;99187.88;;;20.68;nan
77240;BME280;66258;53.170;-2.240;2023-03-21T09:39:59;99181.91;;;21.08;nan
77240;BME280;66258;53.170;-2.240;2023-03-21T09:42:35;99202.03;;;22.35;nan
77240;BME280;66258;53.170;-2.240;2023-03-21T09:45:13;99211.44;;;22.54;nan
77240;BME280;66258;53.170;-2.240;2023-03-21T09:47:45;99196.41;;;23.38;nan
77240;BME280;66258;53.170;-2.240;2023-03-21T09:50:14;99202.94;;;23.97;nan
77240;BME280;66258;53.170;-2.240;2023-03-21T09:52:46;99205.66;;;24.13;nan
77240;BME280;66258;53.170;-2.240;2023-03-21T09:55:17;99191.41;;;22.79;nan
77240;BME280;66258;53.170;-2.240;2023-03-21T09:58:00;99191.72;;;23.18;nan
77240;BME280;66258;53.170;-2.240;2023-03-21T10:00:35;99199.06;;;22.56;nan
77240;BME280;66258;53.170;-2.240;2023-03-21T10:03:09;99192.25;;;22.02;nan
77240;BME280;66258;53.170;-2.240;2023-03-21T10:05:41;99193.44;;;22.21;nan
77240;BME280;66258;53.170;-2.240;2023-03-21T10:08:14;99184.13;;;22.42;nan
77240;BME280;66258;53.170;-2.240;2023-03-21T10:10:48;99192.34;;;22.22;nan
77240;BME280;66258;53.170;-2.240;2023-03-21T10:13:21;99195.09;;;21.33;nan
77240;BME280;66258;53.170;-2.240;2023-03-21T10:15:55;99181.66;;;21.09;nan
77240;BME280;66258;53.170;-2.240;2023-03-21T10:18:25;99172.75;;;20.97;nan
77240;BME280;66258;53.170;-2.240;2023-03-21T10:20:53;99168.41;;;19.82;nan
77240;BME280;66258;53.170;-2.240;2023-03-21T10:23:25;99161.81;;;19.44;nan
77240;BME280;66258;53.170;-2.240;2023-03-21T10:25:57;99157.03;;;18.68;nan
77240;BME280;66258;53.170;-2.240;2023-03-21T10:28:32;99166.09;;;19.02;nan
77240;BME280;66258;53.170;-2.240;2023-03-21T10:31:19;99167.75;;;19.19;nan
77240;BME280;66258;53.170;-2.240;2023-03-21T10:33:49;99164.50;;;20.21;nan
77240;BME280;66258;53.170;-2.240;2023-03-21T10:36:20;99169.25;;;20.48;nan
77240;BME280;66258;53.170;-2.240;2023-03-21T10:38:49;99167.91;;;20.77;nan
77240;BME280;66258;53.170;-2.240;2023-03-21T10:41:18;99156.19;;;20.92;nan
77240;BME280;66258;53.170;-2.240;2023-03-21T10:44:04;99164.41;;;19.89;nan
77240;BME280;66258;53.170;-2.240;2023-03-21T10:46:32;99174.59;;;21.18;nan
77240;BME280;66258;53.170;-2.240;2023-03-21T10:49:01;99178.97;;;20.61;nan
77240;BME280;66258;53.170;-2.240;2023-03-21T10:51:31;99180.66;;;21.20;nan
77240;BME280;66258;53.170;-2.240;2023-03-21T10:54:03;99172.38;;;20.56;nan
77240;BME280;66258;53.170;-2.240;2023-03-21T10:56:35;99182.50;;;20.83;nan
77240;BME280;66258;53.170;-2.240;2023-03-21T10:59:13;99181.75;;;22.04;nan
77240;BME280;66258;53.170;-2.240;2023-03-21T11:01:48;99185.91;;;22.06;nan
77240;BME280;66258;53.170;-2.240;2023-03-21T11:04:18;99187.72;;;21.43;nan
77240;BME280;66258;53.170;-2.240;2023-03-21T11:06:51;99178.53;;;21.01;nan
77240;BME280;66258;53.170;-2.240;2023-03-21T11:09:22;99187.28;;;19.95;nan
77240;BME280;66258;53.170;-2.240;2023-03-21T11:11:53;99195.25;;;21.21;nan
77240;BME280;66258;53.170;-2.240;2023-03-21T11:14:31;99183.16;;;21.22;nan
77240;BME280;66258;53.170;-2.240;2023-03-21T11:17:14;99193.38;;;22.11;nan
77240;BME280;66258;53.170;-2.240;2023-03-21T11:19:48;99191.41;;;21.59;nan
77240;BME280;66258;53.170;-2.240;2023-03-21T11:22:18;99180.50;;;21.32;nan
77240;BME280;66258;53.170;-2.240;2023-03-21T11:24:52;99178.72;;;21.53;nan
77240;BME280;66258;53.170;-2.240;2023-03-21T11:27:21;99181.50;;;21.58;nan
77240;BME280;66258;53.170;-2.240;2023-03-21T11:29:55;99178.38;;;21.91;nan
77240;BME280;66258;53.170;-2.240;2023-03-21T11:32:25;99169.13;;;21.60;nan
77240;BME280;66258;53.170;-2.240;2023-03-21T11:34:59;99158.72;;;21.73;nan
77240;BME280;66258;53.170;-2.240;2023-03-21T11:37:30;99163.19;;;21.42;nan
77240;BME280;66258;53.170;-2.240;2023-03-21T11:40:07;99171.94;;;21.71;nan
77240;BME280;66258;53.170;-2.240;2023-03-21T11:42:46;99166.13;;;21.67;nan
77240;BME280;66258;53.170;-2.240;2023-03-21T11:45:18;99154.06;;;22.41;nan
77240;BME280;66258;53.170;-2.240;2023-03-21T11:47:47;99159.63;;;21.88;nan
77240;BME280;66258;53.170;-2.240;2023-03-21T11:50:23;99152.69;;;21.76;nan
77240;BME280;66258;53.170;-2.240;2023-03-21T11:53:12;99155.34;;;22.03;nan
77240;BME280;66258;53.170;-2.240;2023-03-21T11:55:53;99156.44;;;22.02;nan
77240;BME280;66258;53.170;-2.240;2023-03-21T11:58:36;99148.84;;;21.35;nan
77240;BME280;66258;53.170;-2.240;2023-03-21T12:01:18;99156.44;;;22.12;nan
77240;BME280;66258;53.170;-2.240;2023-03-21T12:04:06;99155.38;;;22.18;nan
77240;BME280;66258;53.170;-2.240;2023-03-21T12:06:42;99154.97;;;21.94;nan
77240;BME280;66258;53.170;-2.240;2023-03-21T12:09:24;99150.38;;;21.63;nan
77240;BME280;66258;53.170;-2.240;2023-03-21T12:12:08;99153.03;;;22.72;nan
77240;BME280;66258;53.170;-2.240;2023-03-21T12:14:53;99147.88;;;24.16;nan
77240;BME280;66258;53.170;-2.240;2023-03-21T12:17:36;99153.38;;;25.15;nan
77240;BME280;66258;53.170;-2.240;2023-03-21T12:20:20;99144.97;;;24.52;nan
77240;BME280;66258;53.170;-2.240;2023-03-21T12:22:59;99142.75;;;23.79;nan
77240;BME280;66258;53.170;-2.240;2023-03-21T12:25:35;99140.63;;;23.30;nan
77240;BME280;66258;53.170;-2.240;2023-03-21T12:28:19;99137.19;;;24.54;nan
77240;BME280;66258;53.170;-2.240;2023-03-21T12:31:07;99140.75;;;23.95;nan
77240;BME280;66258;53.170;-2.240;2023-03-21T12:33:56;99154.41;;;24.85;nan
77240;BME280;66258;53.170;-2.240;2023-03-21T12:36:41;99164.84;;;25.32;nan
77240;BME280;66258;53.170;-2.240;2023-03-21T12:39:23;99176.41;;;25.73;nan
77240;BME280;66258;53.170;-2.240;2023-03-21T12:42:04;99165.75;;;26.04;nan
77240;BME280;66258;53.170;-2.240;2023-03-21T12:44:37;99165.88;;;26.42;nan
77240;BME280;66258;53.170;-2.240;2023-03-21T12:47:07;99173.44;;;26.12;nan
77240;BME280;66258;53.170;-2.240;2023-03-21T12:49:41;99176.69;;;25.09;nan
77240;BME280;66258;53.170;-2.240;2023-03-21T12:52:12;99152.28;;;24.22;nan
77240;BME280;66258;53.170;-2.240;2023-03-21T12:54:45;99151.69;;;23.00;nan
77240;BME280;66258;53.170;-2.240;2023-03-21T12:57:18;99142.25;;;22.55;nan
77240;BME280;66258;53.170;-2.240;2023-03-21T12:59:54;99144.81;;;22.00;nan
77240;BME280;66258;53.170;-2.240;2023-03-21T13:02:29;99131.97;;;22.20;nan
77240;BME280;66258;53.170;-2.240;2023-03-21T13:05:04;99133.28;;;22.03;nan
77240;BME280;66258;53.170;-2.240;2023-03-21T13:07:38;99147.94;;;21.66;nan
77240;BME280;66258;53.170;-2.240;2023-03-21T13:10:12;99137.06;;;20.75;nan
77240;BME280;66258;53.170;-2.240;2023-03-21T13:12:57;99143.66;;;21.06;nan
77240;BME280;66258;53.170;-2.240;2023-03-21T13:15:44;99140.06;;;21.38;nan
77240;BME280;66258;53.170;-2.240;2023-03-21T13:18:23;99140.19;;;21.58;nan
77240;BME280;66258;53.170;-2.240;2023-03-21T13:20:56;99138.88;;;22.23;nan
77240;BME280;66258;53.170;-2.240;2023-03-21T13:23:33;99150.41;;;22.25;nan
77240;BME280;66258;53.170;-2.240;2023-03-21T13:26:07;99150.88;;;22.79;nan
77240;BME280;66258;53.170;-2.240;2023-03-21T13:28:38;99152.38;;;22.29;nan
77240;BME280;66258;53.170;-2.240;2023-03-21T13:31:18;99156.97;;;22.09;nan
77240;BME280;66258;53.170;-2.240;2023-03-21T13:33:48;99147.88;;;22.03;nan
77240;BME280;66258;53.170;-2.240;2023-03-21T13:36:23;99153.97;;;21.21;nan
77240;BME280;66258;53.170;-2.240;2023-03-21T13:38:58;99156.28;;;21.34;nan
77240;BME280;66258;53.170;-2.240;2023-03-21T13:41:31;99162.03;;;22.32;nan
77240;BME280;66258;53.170;-2.240;2023-03-21T13:44:18;99167.72;;;23.03;nan